0AR5 weather

Rgnl Medical Center Heliport
Jonesboro, Arkansas, United States

Public forecast

Using degrees Fahrenheit for public forecast. Weather courtesy of forecast.io.

METAR (pilot weather report)

Closest report is Jonesboro Municipal Airport, 2.7 nm (5.0 km) E. Retrieved 2019/06/15 21:53 UTC (60 minutes ago):

KJBR 152153Z AUTO 21012KT 10SM FEW028 29/21 A2988 RMK AO2 PK WND 21026/2058 RAB25E52 SLP115 P0000 T02940206

TAF (pilot weather forecast)

Closest forecast is Jonesboro Municipal Airport, 2.7 nm (5.0 km) E. Retrieved 2019/06/15 18:36 UTC (4 hours ago):

TAF KJBR 151734Z 1518/1618 21015G26KT P6SM SCT045 BKN150 FM160000 20010KT P6SM SCT045 BKN150 FM161100 21012KT P6SM BKN035 FM161500 22013G21KT P6SM VCSH BKN035